sensor_id;sensor_type;location;lat;lon;timestamp;pressure;altitude;pressure_sealevel;temperature;humidity
60375;BME280;70244;48.792;9.172;2024-01-06T05:23:25;96506.35;;;17.44;65.14
60375;BME280;70244;48.792;9.172;2024-01-06T05:25:56;96509.70;;;17.11;66.11
60375;BME280;70244;48.792;9.172;2024-01-06T05:28:27;96507.21;;;17.15;65.94
60375;BME280;70244;48.792;9.172;2024-01-06T05:30:57;96509.52;;;17.30;65.53
60375;BME280;70244;48.792;9.172;2024-01-06T05:33:28;96515.97;;;17.27;65.50
60375;BME280;70244;48.792;9.172;2024-01-06T05:35:59;96514.86;;;17.28;65.44
60375;BME280;70244;48.792;9.172;2024-01-06T05:38:30;96515.40;;;17.24;65.67
60375;BME280;70244;48.792;9.172;2024-01-06T05:41:01;96519.94;;;17.34;65.32
60375;BME280;70244;48.792;9.172;2024-01-06T05:43:31;96518.66;;;17.31;65.44
60375;BME280;70244;48.792;9.172;2024-01-06T05:46:02;96521.52;;;17.13;65.83
60375;BME280;70244;48.792;9.172;2024-01-06T05:48:33;96525.07;;;17.21;65.65
60375;BME280;70244;48.792;9.172;2024-01-06T05:51:04;96530.70;;;17.13;65.86
60375;BME280;70244;48.792;9.172;2024-01-06T05:53:36;96532.62;;;17.09;66.05
60375;BME280;70244;48.792;9.172;2024-01-06T05:56:06;96534.26;;;16.86;66.65
60375;BME280;70244;48.792;9.172;2024-01-06T05:58:36;96534.93;;;17.08;66.11
60375;BME280;70244;48.792;9.172;2024-01-06T06:01:07;96534.92;;;17.23;65.55
60375;BME280;70244;48.792;9.172;2024-01-06T06:03:38;96543.48;;;17.09;65.95
60375;BME280;70244;48.792;9.172;2024-01-06T06:06:08;96552.14;;;17.02;66.17
60375;BME280;70244;48.792;9.172;2024-01-06T06:08:40;96561.11;;;17.04;66.16
60375;BME280;70244;48.792;9.172;2024-01-06T06:11:10;96569.60;;;17.27;65.56
60375;BME280;70244;48.792;9.172;2024-01-06T06:13:41;96573.96;;;17.32;65.35
60375;BME280;70244;48.792;9.172;2024-01-06T06:16:12;96574.81;;;17.50;64.90
60375;BME280;70244;48.792;9.172;2024-01-06T06:18:42;96573.98;;;17.18;65.75
60375;BME280;70244;48.792;9.172;2024-01-06T06:21:13;96574.27;;;17.29;65.44
60375;BME280;70244;48.792;9.172;2024-01-06T06:23:44;96568.05;;;17.38;65.13
60375;BME280;70244;48.792;9.172;2024-01-06T06:26:15;96569.16;;;17.38;65.19
60375;BME280;70244;48.792;9.172;2024-01-06T06:28:45;96573.00;;;17.50;64.83
60375;BME280;70244;48.792;9.172;2024-01-06T06:31:16;96577.75;;;17.30;65.48
60375;BME280;70244;48.792;9.172;2024-01-06T06:33:47;96580.62;;;17.04;66.14
60375;BME280;70244;48.792;9.172;2024-01-06T06:36:18;96583.16;;;17.15;65.93
60375;BME280;70244;48.792;9.172;2024-01-06T06:38:48;96586.99;;;17.24;65.55
60375;BME280;70244;48.792;9.172;2024-01-06T06:41:19;96592.68;;;17.06;66.08
60375;BME280;70244;48.792;9.172;2024-01-06T06:43:50;96591.23;;;16.91;66.41
60375;BME280;70244;48.792;9.172;2024-01-06T06:46:20;96592.51;;;16.98;66.31
60375;BME280;70244;48.792;9.172;2024-01-06T06:48:51;96595.53;;;16.97;66.25
60375;BME280;70244;48.792;9.172;2024-01-06T06:51:22;96596.69;;;17.14;65.82
60375;BME280;70244;48.792;9.172;2024-01-06T06:53:53;96597.93;;;17.50;64.89
60375;BME280;70244;48.792;9.172;2024-01-06T06:56:24;96604.89;;;17.25;65.39
60375;BME280;70244;48.792;9.172;2024-01-06T06:58:54;96606.99;;;17.31;65.54
60375;BME280;70244;48.792;9.172;2024-01-06T07:01:25;96605.57;;;17.26;65.44
60375;BME280;70244;48.792;9.172;2024-01-06T07:03:56;96608.95;;;17.46;64.95
60375;BME280;70244;48.792;9.172;2024-01-06T07:06:27;96613.11;;;17.43;65.01
60375;BME280;70244;48.792;9.172;2024-01-06T07:08:58;96614.80;;;17.37;65.19
60375;BME280;70244;48.792;9.172;2024-01-06T07:11:28;96617.11;;;17.39;65.11
60375;BME280;70244;48.792;9.172;2024-01-06T07:13:59;96616.79;;;17.17;65.67
60375;BME280;70244;48.792;9.172;2024-01-06T07:16:30;96614.74;;;17.22;65.48
60375;BME280;70244;48.792;9.172;2024-01-06T07:19:01;96616.65;;;17.15;65.68
60375;BME280;70244;48.792;9.172;2024-01-06T07:21:31;96618.92;;;17.12;65.69
60375;BME280;70244;48.792;9.172;2024-01-06T07:24:03;96620.66;;;17.17;65.54
60375;BME280;70244;48.792;9.172;2024-01-06T07:26:33;96625.26;;;17.42;64.94
60375;BME280;70244;48.792;9.172;2024-01-06T07:29:04;96627.24;;;17.21;65.49
60375;BME280;70244;48.792;9.172;2024-01-06T07:31:35;96628.23;;;17.32;65.18
60375;BME280;70244;48.792;9.172;2024-01-06T07:34:05;96628.94;;;17.26;65.41
60375;BME280;70244;48.792;9.172;2024-01-06T07:36:36;96624.97;;;17.05;65.83
60375;BME280;70244;48.792;9.172;2024-01-06T07:39:07;96629.84;;;17.38;65.03
60375;BME280;70244;48.792;9.172;2024-01-06T07:41:38;96634.42;;;17.33;65.27
60375;BME280;70244;48.792;9.172;2024-01-06T07:44:08;96633.62;;;17.25;65.37
60375;BME280;70244;48.792;9.172;2024-01-06T07:46:39;96634.04;;;17.31;65.25
60375;BME280;70244;48.792;9.172;2024-01-06T07:49:10;96633.32;;;17.26;65.40
60375;BME280;70244;48.792;9.172;2024-01-06T07:51:41;96631.48;;;17.32;65.21
60375;BME280;70244;48.792;9.172;2024-01-06T07:54:12;96631.49;;;17.53;64.63
60375;BME280;70244;48.792;9.172;2024-01-06T07:56:42;96628.04;;;17.15;65.52
60375;BME280;70244;48.792;9.172;2024-01-06T07:59:13;96632.56;;;17.30;65.20
60375;BME280;70244;48.792;9.172;2024-01-06T08:01:44;96633.32;;;17.16;65.54
60375;BME280;70244;48.792;9.172;2024-01-06T08:04:15;96634.94;;;17.21;65.49
60375;BME280;70244;48.792;9.172;2024-01-06T08:06:45;96637.50;;;17.31;65.15
60375;BME280;70244;48.792;9.172;2024-01-06T08:09:16;96638.81;;;17.19;65.43
60375;BME280;70244;48.792;9.172;2024-01-06T08:11:47;96637.25;;;17.18;65.55
60375;BME280;70244;48.792;9.172;2024-01-06T08:14:18;96638.51;;;16.97;66.04
60375;BME280;70244;48.792;9.172;2024-01-06T08:16:48;96638.96;;;17.14;65.51
60375;BME280;70244;48.792;9.172;2024-01-06T08:19:19;96643.42;;;17.05;65.90
60375;BME280;70244;48.792;9.172;2024-01-06T08:21:50;96647.90;;;17.69;64.15
60375;BME280;70244;48.792;9.172;2024-01-06T08:24:21;96644.82;;;17.47;64.58
60375;BME280;70244;48.792;9.172;2024-01-06T08:26:52;96642.83;;;17.29;65.17
60375;BME280;70244;48.792;9.172;2024-01-06T08:29:22;96644.09;;;17.29;65.18
60375;BME280;70244;48.792;9.172;2024-01-06T08:31:53;96651.02;;;17.35;65.03
60375;BME280;70244;48.792;9.172;2024-01-06T08:34:24;96655.35;;;17.89;63.68
60375;BME280;70244;48.792;9.172;2024-01-06T08:36:55;96653.87;;;17.57;64.53
60375;BME280;70244;48.792;9.172;2024-01-06T08:39:25;96653.31;;;17.21;65.42
60375;BME280;70244;48.792;9.172;2024-01-06T08:41:56;96652.00;;;17.26;65.23
60375;BME280;70244;48.792;9.172;2024-01-06T08:44:27;96657.50;;;17.55;64.62
60375;BME280;70244;48.792;9.172;2024-01-06T08:46:58;96658.18;;;17.33;65.03
60375;BME280;70244;48.792;9.172;2024-01-06T08:49:28;96660.65;;;17.41;64.78
60375;BME280;70244;48.792;9.172;2024-01-06T08:51:59;96660.65;;;17.46;64.65
60375;BME280;70244;48.792;9.172;2024-01-06T08:54:30;96662.17;;;17.19;65.36
60375;BME280;70244;48.792;9.172;2024-01-06T08:57:01;96665.05;;;17.28;65.15
60375;BME280;70244;48.792;9.172;2024-01-06T08:59:32;96673.38;;;17.17;65.44
60375;BME280;70244;48.792;9.172;2024-01-06T09:02:03;96670.45;;;17.40;64.88
60375;BME280;70244;48.792;9.172;2024-01-06T09:04:33;96675.31;;;17.73;63.94
60375;BME280;70244;48.792;9.172;2024-01-06T09:07:04;96676.36;;;18.02;63.32
60375;BME280;70244;48.792;9.172;2024-01-06T09:09:35;96678.15;;;17.62;64.19
60375;BME280;70244;48.792;9.172;2024-01-06T09:12:06;96682.82;;;17.72;64.04
60375;BME280;70244;48.792;9.172;2024-01-06T09:14:36;96680.87;;;17.64;64.19
60375;BME280;70244;48.792;9.172;2024-01-06T09:17:07;96688.23;;;17.85;63.74
60375;BME280;70244;48.792;9.172;2024-01-06T09:19:38;96689.69;;;17.71;64.01
60375;BME280;70244;48.792;9.172;2024-01-06T09:22:08;96690.92;;;17.75;63.83
60375;BME280;70244;48.792;9.172;2024-01-06T09:24:39;96691.46;;;17.72;63.92
60375;BME280;70244;48.792;9.172;2024-01-06T09:27:10;96692.62;;;17.71;63.99
60375;BME280;70244;48.792;9.172;2024-01-06T09:29:41;96695.90;;;17.63;64.21
60375;BME280;70244;48.792;9.172;2024-01-06T09:32:12;96700.64;;;17.91;63.47
60375;BME280;70244;48.792;9.172;2024-01-06T09:34:42;96706.19;;;17.95;63.35
60375;BME280;70244;48.792;9.172;2024-01-06T09:37:13;96707.44;;;17.64;64.18
60375;BME280;70244;48.792;9.172;2024-01-06T09:39:44;96710.42;;;17.59;64.29
60375;BME280;70244;48.792;9.172;2024-01-06T09:42:14;96712.15;;;17.52;64.45
60375;BME280;70244;48.792;9.172;2024-01-06T09:44:45;96714.03;;;17.52;64.47
60375;BME280;70244;48.792;9.172;2024-01-06T09:47:18;96718.18;;;17.39;64.75
60375;BME280;70244;48.792;9.172;2024-01-06T09:49:49;96722.06;;;17.88;63.54
60375;BME280;70244;48.792;9.172;2024-01-06T09:52:21;96723.73;;;17.80;63.73
60375;BME280;70244;48.792;9.172;2024-01-06T09:54:51;96723.27;;;18.13;62.95
60375;BME280;70244;48.792;9.172;2024-01-06T09:57:20;96719.50;;;17.77;63.89
60375;BME280;70244;48.792;9.172;2024-01-06T09:59:50;96720.24;;;17.75;63.93
60375;BME280;70244;48.792;9.172;2024-01-06T10:02:21;96720.99;;;18.07;63.17
60375;BME280;70244;48.792;9.172;2024-01-06T10:04:51;96723.30;;;18.03;63.21
60375;BME280;70244;48.792;9.172;2024-01-06T10:07:22;96721.44;;;18.55;61.90
60375;BME280;70244;48.792;9.172;2024-01-06T10:09:55;96722.81;;;18.35;62.40
60375;BME280;70244;48.792;9.172;2024-01-06T10:12:24;96722.37;;;18.59;61.68
60375;BME280;70244;48.792;9.172;2024-01-06T10:14:54;96721.23;;;18.46;61.97
60375;BME280;70244;48.792;9.172;2024-01-06T10:17:25;96719.93;;;18.03;63.07
60375;BME280;70244;48.792;9.172;2024-01-06T10:19:56;96721.18;;;17.93;63.27
60375;BME280;70244;48.792;9.172;2024-01-06T10:22:27;96719.35;;;18.20;62.69
60375;BME280;70244;48.792;9.172;2024-01-06T10:24:57;96721.80;;;17.94;63.26
60375;BME280;70244;48.792;9.172;2024-01-06T10:27:28;96718.78;;;17.95;63.24
60375;BME280;70244;48.792;9.172;2024-01-06T10:29:59;96718.84;;;17.90;63.38
60375;BME280;70244;48.792;9.172;2024-01-06T10:32:31;96721.92;;;18.13;62.83
60375;BME280;70244;48.792;9.172;2024-01-06T10:35:01;96724.21;;;18.46;61.89
60375;BME280;70244;48.792;9.172;2024-01-06T10:37:31;96725.24;;;18.27;62.35
60375;BME280;70244;48.792;9.172;2024-01-06T10:40:08;96720.77;;;18.42;62.12
60375;BME280;70244;48.792;9.172;2024-01-06T10:42:33;96723.03;;;18.30;62.45
60375;BME280;70244;48.792;9.172;2024-01-06T10:45:06;96725.73;;;18.22;62.66
60375;BME280;70244;48.792;9.172;2024-01-06T10:47:35;96724.86;;;18.38;62.02
60375;BME280;70244;48.792;9.172;2024-01-06T10:50:06;96723.85;;;18.48;61.87
60375;BME280;70244;48.792;9.172;2024-01-06T10:52:38;96723.50;;;18.07;62.85
60375;BME280;70244;48.792;9.172;2024-01-06T10:55:07;96721.42;;;18.11;62.84
60375;BME280;70244;48.792;9.172;2024-01-06T10:57:38;96722.11;;;18.37;62.11
60375;BME280;70244;48.792;9.172;2024-01-06T11:00:09;96723.08;;;17.80;63.64
60375;BME280;70244;48.792;9.172;2024-01-06T11:02:39;96723.56;;;17.98;63.04
60375;BME280;70244;48.792;9.172;2024-01-06T11:05:10;96723.75;;;18.27;62.45
60375;BME280;70244;48.792;9.172;2024-01-06T11:07:41;96722.65;;;17.77;63.71
60375;BME280;70244;48.792;9.172;2024-01-06T11:10:14;96722.54;;;17.96;63.13
60375;BME280;70244;48.792;9.172;2024-01-06T11:12:42;96717.79;;;17.75;63.69
60375;BME280;70244;48.792;9.172;2024-01-06T11:17:49;96717.91;;;18.15;62.66
60375;BME280;70244;48.792;9.172;2024-01-06T11:20:14;96717.50;;;18.73;61.23
60375;BME280;70244;48.792;9.172;2024-01-06T11:22:45;96718.62;;;18.56;61.55
60375;BME280;70244;48.792;9.172;2024-01-06T11:25:18;96717.45;;;18.82;60.95
60375;BME280;70244;48.792;9.172;2024-01-06T11:27:47;96717.72;;;18.47;61.63
60375;BME280;70244;48.792;9.172;2024-01-06T11:30:20;96714.93;;;18.59;61.47
60375;BME280;70244;48.792;9.172;2024-01-06T11:32:50;96713.76;;;18.88;60.69
60375;BME280;70244;48.792;9.172;2024-01-06T11:35:20;96712.53;;;18.81;60.75
60375;BME280;70244;48.792;9.172;2024-01-06T11:37:53;96706.50;;;18.44;61.70
60375;BME280;70244;48.792;9.172;2024-01-06T11:40:27;96705.40;;;18.68;61.17
60375;BME280;70244;48.792;9.172;2024-01-06T11:42:57;96701.75;;;18.69;61.17
60375;BME280;70244;48.792;9.172;2024-01-06T11:45:24;96701.94;;;18.43;61.80
60375;BME280;70244;48.792;9.172;2024-01-06T11:47:55;96694.77;;;18.71;61.26
60375;BME280;70244;48.792;9.172;2024-01-06T11:50:24;96694.62;;;18.05;62.84
60375;BME280;70244;48.792;9.172;2024-01-06T11:52:55;96693.21;;;18.00;62.99
60375;BME280;70244;48.792;9.172;2024-01-06T11:55:26;96694.12;;;17.76;63.54
60375;BME280;70244;48.792;9.172;2024-01-06T11:57:56;96684.03;;;17.39;64.60
60375;BME280;70244;48.792;9.172;2024-01-06T12:00:27;96689.03;;;17.86;63.52
60375;BME280;70244;48.792;9.172;2024-01-06T12:02:58;96689.13;;;17.90;63.46
60375;BME280;70244;48.792;9.172;2024-01-06T12:05:28;96689.59;;;17.86;63.38
60375;BME280;70244;48.792;9.172;2024-01-06T12:08:00;96689.03;;;17.60;64.07
60375;BME280;70244;48.792;9.172;2024-01-06T12:10:30;96688.06;;;17.79;63.54
60375;BME280;70244;48.792;9.172;2024-01-06T12:13:02;96688.15;;;17.67;63.82
60375;BME280;70244;48.792;9.172;2024-01-06T12:15:32;96687.00;;;17.56;64.17
60375;BME280;70244;48.792;9.172;2024-01-06T12:18:03;96685.73;;;17.46;64.41
60375;BME280;70244;48.792;9.172;2024-01-06T12:20:33;96683.80;;;17.56;64.23
60375;BME280;70244;48.792;9.172;2024-01-06T12:23:04;96684.88;;;17.70;63.88
60375;BME280;70244;48.792;9.172;2024-01-06T12:25:35;96685.53;;;17.90;63.23
60375;BME280;70244;48.792;9.172;2024-01-06T12:28:06;96685.95;;;18.27;62.42
60375;BME280;70244;48.792;9.172;2024-01-06T12:30:37;96688.27;;;18.33;62.20
60375;BME280;70244;48.792;9.172;2024-01-06T12:33:07;96686.52;;;17.87;63.31
60375;BME280;70244;48.792;9.172;2024-01-06T12:35:38;96683.96;;;18.48;61.84
60375;BME280;70244;48.792;9.172;2024-01-06T12:38:09;96679.59;;;18.36;62.12
60375;BME280;70244;48.792;9.172;2024-01-06T12:40:39;96677.14;;;18.78;61.04
60375;BME280;70244;48.792;9.172;2024-01-06T12:43:10;96677.19;;;18.71;61.13
60375;BME280;70244;48.792;9.172;2024-01-06T12:45:41;96675.75;;;18.11;62.57
60375;BME280;70244;48.792;9.172;2024-01-06T12:48:11;96674.95;;;18.28;62.29
60375;BME280;70244;48.792;9.172;2024-01-06T12:50:42;96669.12;;;18.01;63.01
60375;BME280;70244;48.792;9.172;2024-01-06T12:53:13;96669.75;;;17.97;63.10
60375;BME280;70244;48.792;9.172;2024-01-06T12:55:44;96674.51;;;17.93;63.21
60375;BME280;70244;48.792;9.172;2024-01-06T12:58:14;96677.06;;;17.88;63.37
60375;BME280;70244;48.792;9.172;2024-01-06T13:00:45;96672.96;;;17.45;64.41
60375;BME280;70244;48.792;9.172;2024-01-06T13:03:16;96677.12;;;17.30;64.97
60375;BME280;70244;48.792;9.172;2024-01-06T13:05:47;96676.53;;;17.08;65.49
60375;BME280;70244;48.792;9.172;2024-01-06T13:08:17;96679.30;;;17.02;65.69
60375;BME280;70244;48.792;9.172;2024-01-06T13:10:48;96679.68;;;17.19;65.33
60375;BME280;70244;48.792;9.172;2024-01-06T13:13:19;96681.37;;;18.04;63.04
60375;BME280;70244;48.792;9.172;2024-01-06T13:15:49;96686.21;;;17.93;63.27
60375;BME280;70244;48.792;9.172;2024-01-06T13:18:20;96689.37;;;18.03;63.02
60375;BME280;70244;48.792;9.172;2024-01-06T13:20:51;96695.10;;;17.97;63.17
60375;BME280;70244;48.792;9.172;2024-01-06T13:23:22;96690.14;;;18.13;62.78
60375;BME280;70244;48.792;9.172;2024-01-06T13:25:53;96694.39;;;17.89;63.28
60375;BME280;70244;48.792;9.172;2024-01-06T13:28:23;96694.30;;;18.02;62.90
60375;BME280;70244;48.792;9.172;2024-01-06T13:30:54;96694.51;;;18.05;62.92
60375;BME280;70244;48.792;9.172;2024-01-06T13:33:25;96695.09;;;17.70;63.82
60375;BME280;70244;48.792;9.172;2024-01-06T13:35:56;96696.56;;;17.73;63.72
60375;BME280;70244;48.792;9.172;2024-01-06T13:38:27;96696.19;;;17.67;63.94
60375;BME280;70244;48.792;9.172;2024-01-06T13:40:57;96696.52;;;17.47;64.43
60375;BME280;70244;48.792;9.172;2024-01-06T13:43:28;96700.48;;;17.72;63.90
60375;BME280;70244;48.792;9.172;2024-01-06T13:45:59;96699.42;;;17.45;64.48
60375;BME280;70244;48.792;9.172;2024-01-06T13:48:30;96705.52;;;17.33;64.86
60375;BME280;70244;48.792;9.172;2024-01-06T13:51:00;96706.26;;;17.35;64.77
60375;BME280;70244;48.792;9.172;2024-01-06T13:53:31;96709.27;;;17.45;64.55
60375;BME280;70244;48.792;9.172;2024-01-06T13:56:02;96712.08;;;17.68;64.01
60375;BME280;70244;48.792;9.172;2024-01-06T13:58:33;96716.06;;;17.89;63.28
60375;BME280;70244;48.792;9.172;2024-01-06T14:01:04;96717.19;;;17.78;63.69
60375;BME280;70244;48.792;9.172;2024-01-06T14:03:34;96716.46;;;17.62;64.03
60375;BME280;70244;48.792;9.172;2024-01-06T14:06:05;96718.64;;;17.73;63.74
60375;BME280;70244;48.792;9.172;2024-01-06T14:08:36;96720.34;;;17.49;64.39
60375;BME280;70244;48.792;9.172;2024-01-06T14:11:07;96723.36;;;17.80;63.60
60375;BME280;70244;48.792;9.172;2024-01-06T14:13:37;96725.06;;;17.56;64.25
60375;BME280;70244;48.792;9.172;2024-01-06T14:16:08;96728.07;;;17.34;64.83
60375;BME280;70244;48.792;9.172;2024-01-06T14:18:39;96729.58;;;17.38;64.63
60375;BME280;70244;48.792;9.172;2024-01-06T14:21:11;96729.97;;;17.24;65.07
60375;BME280;70244;48.792;9.172;2024-01-06T14:23:40;96726.37;;;17.17;65.25
60375;BME280;70244;48.792;9.172;2024-01-06T14:26:11;96728.87;;;17.47;64.59
60375;BME280;70244;48.792;9.172;2024-01-06T14:28:42;96729.20;;;17.17;65.24
60375;BME280;70244;48.792;9.172;2024-01-06T14:31:13;96734.70;;;17.36;64.79
60375;BME280;70244;48.792;9.172;2024-01-06T14:33:44;96736.58;;;17.32;64.91
60375;BME280;70244;48.792;9.172;2024-01-06T14:36:14;96738.09;;;17.21;65.20
60375;BME280;70244;48.792;9.172;2024-01-06T14:38:45;96744.46;;;17.14;65.31
60375;BME280;70244;48.792;9.172;2024-01-06T14:41:16;96750.69;;;17.04;65.63
60375;BME280;70244;48.792;9.172;2024-01-06T14:43:47;96750.74;;;16.85;66.14
60375;BME280;70244;48.792;9.172;2024-01-06T14:46:17;96751.43;;;17.39;64.70
60375;BME280;70244;48.792;9.172;2024-01-06T14:48:48;96756.25;;;17.77;63.71
60375;BME280;70244;48.792;9.172;2024-01-06T14:51:19;96755.40;;;18.02;62.95
60375;BME280;70244;48.792;9.172;2024-01-06T14:53:50;96757.77;;;17.77;63.62
60375;BME280;70244;48.792;9.172;2024-01-06T14:56:21;96757.61;;;18.07;62.70
60375;BME280;70244;48.792;9.172;2024-01-06T14:58:51;96758.94;;;17.87;63.19
60375;BME280;70244;48.792;9.172;2024-01-06T15:01:22;96763.00;;;18.08;62.76
60375;BME280;70244;48.792;9.172;2024-01-06T15:03:53;96767.27;;;17.88;63.20
60375;BME280;70244;48.792;9.172;2024-01-06T15:06:24;96767.78;;;17.50;64.24
60375;BME280;70244;48.792;9.172;2024-01-06T15:08:55;96768.76;;;17.61;63.96
60375;BME280;70244;48.792;9.172;2024-01-06T15:11:25;96772.32;;;17.69;63.84
60375;BME280;70244;48.792;9.172;2024-01-06T15:13:56;96770.98;;;17.40;64.46
60375;BME280;70244;48.792;9.172;2024-01-06T15:16:27;96770.33;;;17.51;64.24
60375;BME280;70244;48.792;9.172;2024-01-06T15:18:58;96772.43;;;17.44;64.57
60375;BME280;70244;48.792;9.172;2024-01-06T15:21:28;96774.16;;;17.16;65.09
60375;BME280;70244;48.792;9.172;2024-01-06T15:23:59;96775.46;;;17.29;64.81
60375;BME280;70244;48.792;9.172;2024-01-06T15:26:30;96780.94;;;17.15;65.16
60375;BME280;70244;48.792;9.172;2024-01-06T15:29:01;96783.47;;;16.81;66.12
60375;BME280;70244;48.792;9.172;2024-01-06T15:31:31;96787.05;;;16.97;65.77
60375;BME280;70244;48.792;9.172;2024-01-06T15:34:02;96787.71;;;16.77;66.32
60375;BME280;70244;48.792;9.172;2024-01-06T15:36:33;96787.62;;;17.22;65.06
60375;BME280;70244;48.792;9.172;2024-01-06T15:39:04;96786.65;;;17.81;63.50
60375;BME280;70244;48.792;9.172;2024-01-06T15:41:35;96784.97;;;17.54;64.09
60375;BME280;70244;48.792;9.172;2024-01-06T15:44:05;96784.38;;;17.49;64.27
60375;BME280;70244;48.792;9.172;2024-01-06T15:46:36;96788.91;;;17.26;64.93
60375;BME280;70244;48.792;9.172;2024-01-06T15:49:07;96786.60;;;17.61;63.90
60375;BME280;70244;48.792;9.172;2024-01-06T15:51:38;96789.30;;;17.24;64.95
60375;BME280;70244;48.792;9.172;2024-01-06T15:54:09;96787.36;;;17.57;64.16
60375;BME280;70244;48.792;9.172;2024-01-06T15:56:39;96788.28;;;17.19;65.10
60375;BME280;70244;48.792;9.172;2024-01-06T15:59:10;96787.57;;;17.23;65.00
60375;BME280;70244;48.792;9.172;2024-01-06T16:01:41;96780.63;;;17.24;64.91
60375;BME280;70244;48.792;9.172;2024-01-06T16:04:12;96784.04;;;17.16;65.11
60375;BME280;70244;48.792;9.172;2024-01-06T16:06:43;96787.35;;;17.14;65.13
60375;BME280;70244;48.792;9.172;2024-01-06T16:09:13;96787.34;;;16.96;65.69
60375;BME280;70244;48.792;9.172;2024-01-06T16:11:44;96788.70;;;17.09;65.36
60375;BME280;70244;48.792;9.172;2024-01-06T16:14:15;96788.96;;;17.21;65.01
60375;BME280;70244;48.792;9.172;2024-01-06T16:16:46;96785.96;;;17.34;64.78
60375;BME280;70244;48.792;9.172;2024-01-06T16:19:16;96784.95;;;17.35;64.61
60375;BME280;70244;48.792;9.172;2024-01-06T16:21:47;96786.54;;;17.04;65.41
60375;BME280;70244;48.792;9.172;2024-01-06T16:24:18;96786.50;;;17.13;65.22
60375;BME280;70244;48.792;9.172;2024-01-06T16:26:49;96789.29;;;17.15;65.14
60375;BME280;70244;48.792;9.172;2024-01-06T16:29:19;96794.38;;;17.15;65.15
60375;BME280;70244;48.792;9.172;2024-01-06T16:31:50;96797.30;;;17.63;63.92
60375;BME280;70244;48.792;9.172;2024-01-06T16:34:21;96795.90;;;17.45;64.42
60375;BME280;70244;48.792;9.172;2024-01-06T16:36:52;96797.32;;;17.48;64.30
60375;BME280;70244;48.792;9.172;2024-01-06T16:39:23;96799.30;;;17.14;65.29
60375;BME280;70244;48.792;9.172;2024-01-06T16:41:53;96799.70;;;17.11;65.32
60375;BME280;70244;48.792;9.172;2024-01-06T16:44:24;96802.46;;;17.08;65.39
60375;BME280;70244;48.792;9.172;2024-01-06T16:46:55;96803.72;;;17.58;64.02
60375;BME280;70244;48.792;9.172;2024-01-06T16:49:26;96804.07;;;17.40;64.48
60375;BME280;70244;48.792;9.172;2024-01-06T16:51:57;96806.38;;;17.68;63.83
60375;BME280;70244;48.792;9.172;2024-01-06T16:54:27;96808.39;;;17.62;63.99
60375;BME280;70244;48.792;9.172;2024-01-06T16:56:58;96811.24;;;17.35;64.70
60375;BME280;70244;48.792;9.172;2024-01-06T16:59:30;96811.61;;;17.36;64.56
60375;BME280;70244;48.792;9.172;2024-01-06T17:02:00;96808.85;;;17.34;64.65
60375;BME280;70244;48.792;9.172;2024-01-06T17:04:31;96809.86;;;17.27;64.72
60375;BME280;70244;48.792;9.172;2024-01-06T17:07:01;96811.84;;;17.43;64.36
60375;BME280;70244;48.792;9.172;2024-01-06T17:09:32;96812.10;;;17.54;64.17
60375;BME280;70244;48.792;9.172;2024-01-06T17:12:03;96817.83;;;17.45;64.21
60375;BME280;70244;48.792;9.172;2024-01-06T17:14:34;96819.73;;;17.37;64.43
60375;BME280;70244;48.792;9.172;2024-01-06T17:17:05;96820.54;;;17.77;63.41
60375;BME280;70244;48.792;9.172;2024-01-06T17:19:35;96821.47;;;17.63;63.68
60375;BME280;70244;48.792;9.172;2024-01-06T17:22:06;96826.29;;;17.27;64.74
60375;BME280;70244;48.792;9.172;2024-01-06T17:24:37;96824.15;;;17.51;64.17
60375;BME280;70244;48.792;9.172;2024-01-06T17:27:07;96826.25;;;17.34;64.48
60375;BME280;70244;48.792;9.172;2024-01-06T17:29:38;96827.79;;;17.54;64.04
60375;BME280;70244;48.792;9.172;2024-01-06T17:32:09;96833.45;;;17.34;64.54
60375;BME280;70244;48.792;9.172;2024-01-06T17:34:40;96835.65;;;17.39;64.39
60375;BME280;70244;48.792;9.172;2024-01-06T17:37:11;96838.66;;;17.33;64.52
60375;BME280;70244;48.792;9.172;2024-01-06T17:39:41;96842.13;;;17.20;64.90
60375;BME280;70244;48.792;9.172;2024-01-06T17:42:12;96845.12;;;17.25;64.80
60375;BME280;70244;48.792;9.172;2024-01-06T17:44:43;96844.21;;;17.12;65.03
60375;BME280;70244;48.792;9.172;2024-01-06T17:47:14;96846.77;;;17.29;64.68
60375;BME280;70244;48.792;9.172;2024-01-06T17:49:45;96849.77;;;17.35;64.56
60375;BME280;70244;48.792;9.172;2024-01-06T17:52:15;96850.91;;;17.29;64.67
60375;BME280;70244;48.792;9.172;2024-01-06T17:54:46;96851.69;;;17.19;64.88
60375;BME280;70244;48.792;9.172;2024-01-06T17:57:17;96849.94;;;16.97;65.48
60375;BME280;70244;48.792;9.172;2024-01-06T17:59:48;96846.00;;;17.01;65.39
60375;BME280;70244;48.792;9.172;2024-01-06T18:02:18;96849.37;;;16.93;65.59
60375;BME280;70244;48.792;9.172;2024-01-06T18:04:49;96848.64;;;16.92;65.73
60375;BME280;70244;48.792;9.172;2024-01-06T18:07:20;96854.55;;;17.42;64.36
60375;BME280;70244;48.792;9.172;2024-01-06T18:09:50;96854.36;;;17.57;63.84
60375;BME280;70244;48.792;9.172;2024-01-06T18:12:21;96854.14;;;17.55;63.78
60375;BME280;70244;48.792;9.172;2024-01-06T18:14:52;96854.55;;;17.79;63.22
60375;BME280;70244;48.792;9.172;2024-01-06T18:17:23;96853.70;;;17.74;63.30
60375;BME280;70244;48.792;9.172;2024-01-06T18:19:54;96853.81;;;17.48;63.97
60375;BME280;70244;48.792;9.172;2024-01-06T18:22:24;96856.64;;;17.57;63.85
60375;BME280;70244;48.792;9.172;2024-01-06T18:24:55;96858.47;;;17.53;63.90
60375;BME280;70244;48.792;9.172;2024-01-06T18:27:26;96858.11;;;17.41;64.22
60375;BME280;70244;48.792;9.172;2024-01-06T18:29:57;96860.02;;;17.55;63.84
60375;BME280;70244;48.792;9.172;2024-01-06T18:32:27;96857.92;;;17.73;63.53
60375;BME280;70244;48.792;9.172;2024-01-06T18:34:58;96861.28;;;17.81;63.31
60375;BME280;70244;48.792;9.172;2024-01-06T18:37:29;96860.98;;;17.48;64.16
60375;BME280;70244;48.792;9.172;2024-01-06T18:40:00;96862.00;;;17.21;64.71
60375;BME280;70244;48.792;9.172;2024-01-06T18:42:30;96864.62;;;17.38;64.33